Time;durP1;ratioP1;P1;durP2;ratioP2;P2;SDS_P1;SDS_P2;PMS_P1;PMS_P2;Temp;Humidity;BMP_temperature;BMP_pressure;BME280_temperature;BME280_humidity;BME280_pressure;Samples;Min_cycle;Max_cycle;Signal;HPM_P1;HPM_P2
2023/04/03 00:01:04;;;;;;;4.78;3.83;;;10.00;62.80;;;4.75;100.00;95853.84;4974901;28;20032;-49
2023/04/03 00:03:30;;;;;;;5.05;4.03;;;9.90;62.70;;;4.78;100.00;95856.06;4968898;28;20017;-53
2023/04/03 00:05:56;;;;;;;4.88;3.72;;;9.90;62.70;;;4.86;100.00;95852.31;4970554;28;20030;-49
2023/04/03 00:08:23;;;;;;;5.25;3.88;;;9.80;62.70;;;4.80;100.00;95838.16;4970466;28;20494;-47
2023/04/03 00:10:49;;;;;;;5.00;3.70;;;9.80;62.70;;;4.84;100.00;95849.88;4969453;28;20499;-48
2023/04/03 00:13:17;;;;;;;3.92;3.40;;;9.80;62.70;;;4.79;100.00;95839.19;4967069;28;20472;-47
2023/04/03 00:15:44;;;;;;;4.43;3.45;;;9.80;62.80;;;4.83;100.00;95848.28;4963601;28;20029;-46
2023/04/03 00:18:10;;;;;;;5.50;3.55;;;9.70;62.70;;;4.84;100.00;95857.00;4968651;28;20046;-47
2023/04/03 00:20:37;;;;;;;5.90;4.07;;;9.70;62.80;;;4.73;100.00;95857.75;4966408;28;20068;-56
2023/04/03 00:23:03;;;;;;;5.97;4.90;;;9.70;62.80;;;4.69;100.00;95852.09;4964279;28;20747;-55
2023/04/03 00:25:29;;;;;;;5.47;4.32;;;9.70;62.80;;;4.66;100.00;95859.66;4971301;28;20088;-54
2023/04/03 00:27:55;;;;;;;6.03;4.60;;;9.70;62.80;;;4.63;100.00;95871.44;4962807;28;20461;-51
2023/04/03 00:30:23;;;;;;;6.40;4.30;;;9.60;62.90;;;4.54;100.00;95857.72;4966388;28;20103;-49
2023/04/03 00:32:51;;;;;;;5.35;3.78;;;9.60;62.80;;;4.60;100.00;95863.97;4967451;28;20014;-49
2023/04/03 00:35:19;;;;;;;5.38;4.32;;;9.60;62.90;;;4.51;100.00;95871.38;4968233;28;20089;-51
2023/04/03 00:37:46;;;;;;;7.07;5.22;;;9.50;62.80;;;4.41;100.00;95866.59;4966136;28;20412;-50
2023/04/03 00:40:16;;;;;;;6.57;4.70;;;9.50;62.80;;;4.36;100.00;95868.28;4967150;28;20053;-52
2023/04/03 00:42:45;;;;;;;7.70;5.68;;;9.50;62.80;;;4.31;100.00;95868.13;4967486;28;20014;-47
2023/04/03 00:45:11;;;;;;;7.35;5.65;;;9.40;62.80;;;4.28;100.00;95865.94;4965078;28;20037;-52
2023/04/03 00:47:40;;;;;;;8.80;5.68;;;9.40;62.70;;;4.20;100.00;95866.19;4960711;28;20170;-52
2023/04/03 00:50:08;;;;;;;7.57;5.38;;;9.30;62.80;;;4.10;100.00;95864.84;4968452;28;20019;-52
2023/04/03 00:52:34;;;;;;;6.30;4.70;;;9.30;62.80;;;4.17;100.00;95870.09;4971232;28;20599;-51
2023/04/03 00:55:08;;;;;;;8.00;5.80;;;9.20;62.80;;;4.08;100.00;95860.84;4964588;28;20159;-53
2023/04/03 00:57:34;;;;;;;6.03;4.75;;;9.20;62.90;;;4.01;100.00;95860.91;4964930;28;20416;-55
2023/04/03 01:00:12;;;;;;;7.85;5.20;;;9.10;62.90;;;3.97;100.00;95864.97;4966407;28;20490;-52
2023/04/03 01:02:40;;;;;;;8.75;4.57;;;9.10;63.70;;;3.83;100.00;95866.94;4967581;28;20141;-51
2023/04/03 01:05:08;;;;;;;8.35;5.13;;;9.00;62.90;;;3.79;100.00;95859.66;4975694;28;20072;-48
2023/04/03 01:07:36;;;;;;;5.88;4.63;;;9.00;63.00;;;3.75;100.00;95861.91;4961125;28;20122;-47
2023/04/03 01:10:11;;;;;;;8.85;6.07;;;8.90;62.90;;;3.64;100.00;95868.69;4967422;28;20049;-49
2023/04/03 01:12:42;;;;;;;8.85;5.50;;;8.80;63.00;;;3.59;100.00;95862.44;4969058;28;20373;-51
2023/04/03 01:15:25;;;;;;;7.95;6.32;;;8.80;63.10;;;3.46;100.00;95864.16;4971417;28;20144;-55
2023/04/03 01:17:57;;;;;;;9.27;6.22;;;8.70;63.10;;;3.35;100.00;95845.59;4951730;28;20030;-47
2023/04/03 01:20:35;;;;;;;9.18;6.07;;;8.70;63.10;;;3.28;100.00;95866.69;4968797;28;20033;-48
2023/04/03 01:23:10;;;;;;;9.18;6.53;;;8.60;64.10;;;3.27;100.00;95869.56;4967765;28;20029;-48
2023/04/03 01:25:49;;;;;;;10.32;6.65;;;8.50;63.40;;;3.23;100.00;95871.81;4966857;28;20021;-52
2023/04/03 01:28:34;;;;;;;9.77;7.05;;;8.40;64.30;;;3.20;100.00;95880.91;4969858;28;20034;-54
2023/04/03 01:31:34;;;;;;;9.60;6.90;;;8.40;63.70;;;3.14;100.00;95875.69;4965020;28;20026;-51
2023/04/03 01:34:00;;;;;;;11.57;7.32;;;8.30;63.70;;;3.13;100.00;95872.22;4970440;28;20117;-53
2023/04/03 01:36:31;;;;;;;9.10;7.07;;;8.20;63.80;;;3.10;100.00;95870.00;4965755;28;20046;-47
2023/04/03 01:39:00;;;;;;;10.32;7.20;;;8.20;63.90;;;3.04;100.00;95868.25;4965042;28;20034;-51
2023/04/03 01:41:27;;;;;;;10.90;7.60;;;8.20;64.00;;;3.06;100.00;95874.09;4969305;28;20021;-52
2023/04/03 01:43:53;;;;;;;10.32;7.80;;;8.10;64.00;;;2.99;100.00;95876.75;4966913;28;20069;-54
2023/04/03 01:46:21;;;;;;;10.00;7.50;;;8.10;64.10;;;2.85;100.00;95875.22;4964833;28;20113;-47
2023/04/03 01:48:48;;;;;;;9.98;7.72;;;8.10;64.20;;;2.85;100.00;95883.13;4966011;28;20022;-47
2023/04/03 01:51:15;;;;;;;10.70;7.90;;;8.00;64.10;;;2.81;100.00;95878.47;4966779;28;20113;-48
2023/04/03 01:53:41;;;;;;;10.98;8.02;;;8.00;64.10;;;2.76;100.00;95871.22;4968378;28;20083;-47
2023/04/03 01:56:08;;;;;;;10.60;8.00;;;8.00;64.20;;;2.75;100.00;95877.47;4961378;28;20058;-50
2023/04/03 01:58:34;;;;;;;10.73;7.15;;;7.90;65.00;;;2.70;100.00;95878.09;4967753;28;20030;-47
2023/04/03 02:01:01;;;;;;;8.93;6.90;;;7.90;64.30;;;2.65;100.00;95890.25;4972368;28;20626;-47
2023/04/03 02:03:27;;;;;;;10.38;7.20;;;7.80;65.00;;;2.65;100.00;95887.63;4968594;28;20022;-54
2023/04/03 02:05:53;;;;;;;10.55;7.60;;;7.90;64.30;;;2.73;100.00;95879.50;4969277;28;20026;-47
2023/04/03 02:08:19;;;;;;;11.60;7.78;;;7.80;64.30;;;2.72;100.00;95891.84;4964689;28;20592;-52
2023/04/03 02:10:49;;;;;;;11.88;7.28;;;7.80;64.40;;;2.71;100.00;95890.22;4963948;28;20026;-52
2023/04/03 02:13:17;;;;;;;9.13;7.07;;;7.80;64.50;;;2.68;100.00;95888.00;4971743;28;20030;-52
2023/04/03 02:15:43;;;;;;;8.43;6.65;;;7.80;64.40;;;2.62;100.00;95894.09;4970296;28;20037;-47
2023/04/03 02:18:10;;;;;;;9.57;7.00;;;7.80;64.50;;;2.59;100.00;95880.56;4968738;28;20500;-51
2023/04/03 02:20:36;;;;;;;9.27;7.07;;;7.70;64.40;;;2.65;100.00;95885.78;4962070;28;20053;-48
2023/04/03 02:23:02;;;;;;;8.85;6.70;;;7.70;64.40;;;2.61;100.00;95881.16;4968623;28;20086;-52
2023/04/03 02:25:30;;;;;;;7.30;5.65;;;7.70;64.50;;;2.57;100.00;95887.84;4965704;28;20030;-52
2023/04/03 02:27:57;;;;;;;7.95;6.20;;;7.70;64.50;;;2.55;100.00;95880.16;4969354;28;20040;-47
2023/04/03 02:30:22;;;;;;;6.53;5.38;;;7.70;64.50;;;2.56;100.00;95887.03;4980834;28;20030;-47
2023/04/03 02:32:48;;;;;;;7.35;5.45;;;7.70;64.60;;;2.45;100.00;95883.22;4966739;28;20378;-50
2023/04/03 02:35:15;;;;;;;6.50;4.63;;;7.60;64.50;;;2.41;100.00;95871.47;4959510;28;20027;-51
2023/04/03 02:37:41;;;;;;;6.80;4.93;;;7.60;64.60;;;2.39;100.00;95872.72;4957686;28;20050;-53
2023/04/03 02:40:08;;;;;;;7.35;4.97;;;7.60;64.60;;;2.34;100.00;95878.59;4964723;28;20026;-48
2023/04/03 02:42:35;;;;;;;7.80;6.00;;;7.50;64.60;;;2.34;100.00;95883.84;4963079;28;20030;-47
2023/04/03 02:45:01;;;;;;;8.13;6.15;;;7.50;64.60;;;2.29;100.00;95881.84;4962789;28;20038;-47
2023/04/03 02:47:28;;;;;;;12.23;6.15;;;7.50;64.70;;;2.23;100.00;95880.03;4964128;28;20034;-47
2023/04/03 02:49:54;;;;;;;8.18;5.63;;;7.50;64.80;;;2.26;100.00;95881.44;4959434;28;20495;-53
2023/04/03 02:52:21;;;;;;;8.93;6.03;;;7.40;64.70;;;2.22;100.00;95870.50;4967656;28;20125;-57
2023/04/03 02:54:47;;;;;;;7.47;5.70;;;7.40;64.90;;;2.17;100.00;95880.84;4976068;28;20034;-55
2023/04/03 02:57:13;;;;;;;6.95;5.53;;;7.40;64.90;;;2.11;100.00;95881.66;4960119;28;20056;-51
2023/04/03 02:59:40;;;;;;;8.93;6.25;;;7.40;65.00;;;2.15;100.00;95900.47;4964397;28;20057;-50
2023/04/03 03:02:10;;;;;;;7.80;5.60;;;7.30;65.00;;;2.14;100.00;95886.50;4970852;28;20026;-52
2023/04/03 03:04:36;;;;;;;6.93;5.30;;;7.30;65.00;;;2.08;100.00;95889.97;4970240;28;20613;-51
2023/04/03 03:07:03;;;;;;;7.63;5.93;;;7.30;65.00;;;2.01;100.00;95889.97;4966417;28;20109;-52
2023/04/03 03:09:29;;;;;;;7.85;5.72;;;7.30;65.80;;;2.01;100.00;95892.59;4965091;28;20468;-49
2023/04/03 03:11:57;;;;;;;8.50;5.95;;;7.30;65.00;;;1.87;100.00;95893.59;4966322;28;20045;-51
2023/04/03 03:14:23;;;;;;;8.88;6.40;;;7.20;64.90;;;1.95;100.00;95896.03;4975100;28;20284;-48
2023/04/03 03:16:50;;;;;;;7.47;6.00;;;7.20;64.90;;;1.90;100.00;95895.81;4967380;28;20113;-48
2023/04/03 03:19:16;;;;;;;8.38;6.38;;;7.10;64.80;;;1.90;100.00;95887.13;4965988;28;20479;-46
2023/04/03 03:21:42;;;;;;;7.03;5.78;;;7.10;64.80;;;1.79;100.00;95889.34;4954541;28;20177;-48
2023/04/03 03:24:08;;;;;;;8.40;5.45;;;7.10;64.80;;;1.83;100.00;95902.91;4969900;28;20018;-51
2023/04/03 03:26:34;;;;;;;8.63;6.40;;;7.10;64.70;;;1.80;100.00;95901.47;4975125;28;20030;-51
2023/04/03 03:29:00;;;;;;;8.77;6.45;;;7.00;64.70;;;1.82;100.00;95891.59;4969277;28;20030;-55
2023/04/03 03:31:25;;;;;;;8.95;6.15;;;7.00;64.70;;;1.79;100.00;95901.69;4965287;28;20018;-50
2023/04/03 03:33:51;;;;;;;9.50;6.43;;;7.00;64.70;;;1.68;100.00;95897.03;4969588;28;20636;-47
2023/04/03 03:36:17;;;;;;;8.65;6.25;;;7.00;64.70;;;1.76;100.00;95892.38;4970435;28;20243;-49
2023/04/03 03:38:43;;;;;;;9.50;5.97;;;6.90;64.50;;;1.80;100.00;95895.41;4967293;28;20109;-51
2023/04/03 03:41:09;;;;;;;7.68;5.63;;;6.90;64.50;;;1.81;100.00;95900.47;4972988;28;20033;-53
2023/04/03 03:43:35;;;;;;;7.75;5.82;;;6.90;64.40;;;1.80;100.00;95895.41;4968798;28;20025;-46
2023/04/03 03:46:01;;;;;;;6.85;5.60;;;6.90;64.40;;;1.73;99.49;95902.50;4969290;28;20026;-46
2023/04/03 03:48:26;;;;;;;7.82;5.65;;;6.90;64.30;;;1.70;100.00;95906.31;4970261;28;20168;-45
2023/04/03 03:50:52;;;;;;;7.78;6.10;;;6.90;64.30;;;1.72;100.00;95904.28;4969930;28;20022;-51
2023/04/03 03:53:19;;;;;;;9.50;6.05;;;6.90;64.20;;;1.70;99.89;95905.53;4967968;28;20054;-52
2023/04/03 03:55:45;;;;;;;7.55;5.80;;;6.90;64.30;;;1.73;99.94;95911.19;4966684;28;20435;-53
2023/04/03 03:58:11;;;;;;;9.00;6.43;;;6.80;64.10;;;1.68;99.05;95915.41;4970615;28;20036;-47
2023/04/03 04:00:36;;;;;;;9.50;5.57;;;6.80;64.10;;;1.68;99.40;95916.22;4965209;28;20118;-55
2023/04/03 04:03:02;;;;;;;8.55;6.32;;;6.80;64.00;;;1.61;98.13;95918.03;4977992;28;20022;-46
2023/04/03 04:05:29;;;;;;;7.53;5.72;;;6.80;64.00;;;1.67;98.08;95911.19;4974413;28;20480;-45
2023/04/03 04:07:55;;;;;;;7.85;5.80;;;6.80;64.00;;;1.69;97.57;95912.56;4973593;28;20455;-47
2023/04/03 04:10:20;;;;;;;7.93;5.95;;;6.80;63.90;;;1.51;95.19;95915.00;4960732;28;20106;-47
2023/04/03 04:12:48;;;;;;;7.93;5.72;;;6.80;63.80;;;1.52;96.97;95922.66;4972109;28;20555;-50
2023/04/03 04:15:14;;;;;;;7.85;5.80;;;6.70;63.70;;;1.52;96.80;95924.47;4968636;28;20092;-48
2023/04/03 04:17:40;;;;;;;9.65;6.60;;;6.70;63.60;;;1.52;96.26;95932.34;4977379;28;20029;-53
2023/04/03 04:20:07;;;;;;;8.95;6.30;;;6.70;63.60;;;1.64;96.43;95927.34;4963207;28;20382;-51
2023/04/03 04:22:33;;;;;;;9.70;6.22;;;6.70;63.60;;;1.68;96.99;95929.34;4957356;28;20107;-48
2023/04/03 04:24:59;;;;;;;7.55;6.15;;;6.70;63.60;;;1.61;97.63;95916.22;4967792;28;20428;-46
2023/04/03 04:27:24;;;;;;;8.55;5.90;;;6.70;63.60;;;1.50;96.63;95916.78;4970339;28;20030;-46
2023/04/03 04:29:50;;;;;;;7.90;6.10;;;6.70;63.50;;;1.58;97.75;95919.22;4969362;28;20033;-49
2023/04/03 04:32:16;;;;;;;8.18;6.20;;;6.70;63.50;;;1.57;97.51;95922.88;4970224;28;20022;-48
2023/04/03 04:34:42;;;;;;;8.82;6.38;;;6.70;63.50;;;1.58;97.30;95916.59;4969786;28;20022;-48
2023/04/03 04:37:08;;;;;;;8.30;6.18;;;6.70;63.50;;;1.55;96.94;95919.63;4967435;28;20119;-56
2023/04/03 04:39:34;;;;;;;6.80;5.60;;;6.70;63.50;;;1.59;97.15;95920.03;4969712;28;20018;-47
2023/04/03 04:42:00;;;;;;;9.45;6.38;;;6.60;63.50;;;1.45;95.23;95919.22;4967240;28;20072;-47
2023/04/03 04:44:26;;;;;;;7.22;5.60;;;6.60;63.30;;;1.50;94.52;95921.22;4966853;28;20033;-53
2023/04/03 04:46:52;;;;;;;10.07;5.68;;;6.60;63.30;;;1.54;95.03;95923.28;4959012;28;20803;-52
2023/04/03 04:49:18;;;;;;;7.68;5.55;;;6.60;63.20;;;1.55;94.86;95932.75;4974169;28;20038;-50
2023/04/03 04:51:43;;;;;;;8.38;6.22;;;6.60;63.20;;;1.56;93.91;95923.88;4945991;28;20026;-48
2023/04/03 04:54:09;;;;;;;6.60;5.25;;;6.60;63.20;;;1.50;93.11;95919.41;4957981;28;20022;-50
2023/04/03 04:56:35;;;;;;;7.18;5.25;;;6.60;63.10;;;1.43;91.21;95912.53;4971615;28;20113;-52
2023/04/03 04:59:01;;;;;;;7.72;5.75;;;6.60;63.00;;;1.39;90.30;95918.19;4962779;28;20291;-50
2023/04/03 05:01:27;;;;;;;6.70;4.93;;;6.60;62.80;;;1.39;87.88;95914.75;4967087;28;20484;-47
2023/04/03 05:03:53;;;;;;;6.65;4.78;;;6.60;62.60;;;1.35;87.88;95914.34;4967016;28;20026;-48
2023/04/03 05:06:19;;;;;;;6.07;4.47;;;6.50;62.50;;;1.38;89.60;95928.91;4968303;28;20478;-47
2023/04/03 05:08:45;;;;;;;5.32;4.40;;;6.50;62.20;;;1.36;85.97;95926.47;4962922;28;20030;-52
2023/04/03 05:11:11;;;;;;;5.63;4.32;;;6.50;62.20;;;1.33;86.01;95932.09;4964863;28;20037;-48
2023/04/03 05:13:36;;;;;;;5.80;4.80;;;6.50;61.90;;;1.28;85.55;95929.25;4969094;28;20539;-47
2023/04/03 05:16:03;;;;;;;6.68;4.40;;;6.50;61.70;;;1.26;85.40;95935.72;4972856;28;20041;-48
2023/04/03 05:18:28;;;;;;;6.10;4.38;;;6.50;61.50;;;1.20;83.85;95928.66;4958453;28;20030;-46
2023/04/03 05:20:54;;;;;;;6.53;3.90;;;6.50;61.30;;;1.18;84.44;95936.69;4961152;28;20022;-55
2023/04/03 05:23:20;;;;;;;6.30;5.00;;;6.50;61.10;;;1.23;84.44;95936.13;4964273;28;20022;-48
2023/04/03 05:25:46;;;;;;;7.50;4.25;;;6.50;60.90;;;1.12;83.59;95943.53;4964442;28;20073;-54
2023/04/03 05:28:12;;;;;;;4.80;3.80;;;6.50;60.70;;;1.08;83.26;95931.81;4967058;28;20030;-48
2023/04/03 05:30:38;;;;;;;5.20;4.00;;;6.50;60.50;;;1.13;83.78;95934.69;4965056;28;20018;-53
2023/04/03 05:33:05;;;;;;;8.27;4.70;;;6.50;60.30;;;1.11;83.50;95931.44;4961579;28;20455;-51
2023/04/03 05:35:32;;;;;;;5.43;3.85;;;6.50;60.20;;;1.07;82.62;95917.09;4958486;28;20024;-46
2023/04/03 05:37:58;;;;;;;5.03;3.65;;;6.50;60.10;;;1.04;81.48;95932.41;5009543;23;20187;-54
2023/04/03 05:40:24;;;;;;;7.72;4.10;;;6.50;59.90;;;1.14;83.23;95944.16;4972182;28;20033;-48
2023/04/03 05:42:50;;;;;;;5.43;3.97;;;6.50;59.80;;;1.14;81.48;95945.97;4979753;28;20036;-56
2023/04/03 05:45:16;;;;;;;5.07;3.92;;;6.50;59.80;;;1.21;82.83;95932.88;4979002;28;20108;-53
2023/04/03 05:47:42;;;;;;;5.65;4.25;;;6.60;59.60;;;1.24;81.25;95935.91;4964371;28;20042;-56
2023/04/03 05:50:08;;;;;;;7.22;4.03;;;6.60;59.60;;;1.27;81.10;95935.50;4962637;28;20029;-53
2023/04/03 05:52:46;;;;;;;6.20;4.20;;;6.60;59.50;;;1.28;80.44;95944.19;4958481;28;20480;-52
2023/04/03 05:55:12;;;;;;;6.47;4.20;;;6.70;59.30;;;1.31;80.75;95938.56;4974656;28;20026;-55
2023/04/03 05:57:38;;;;;;;5.65;4.25;;;6.70;59.20;;;1.35;80.23;95940.59;4957129;28;20385;-49
2023/04/03 06:00:09;;;;;;;4.90;3.88;;;6.70;59.00;;;1.34;79.47;95944.22;4960004;28;20035;-53
2023/04/03 06:02:35;;;;;;;5.43;4.25;;;6.70;58.90;;;1.32;79.59;95930.50;4960473;28;20034;-54
2023/04/03 06:05:02;;;;;;;5.80;4.10;;;6.70;58.80;;;1.33;79.64;95947.84;4961192;28;20022;-55
2023/04/03 06:07:28;;;;;;;6.25;3.65;;;6.80;58.70;;;1.35;78.50;95947.66;4962910;28;20030;-54
2023/04/03 06:09:56;;;;;;;4.95;3.47;;;6.80;58.60;;;1.38;78.26;95950.72;4963063;28;20053;-56
2023/04/03 06:12:23;;;;;;;5.50;3.45;;;6.80;58.40;;;1.34;79.47;95956.53;4962736;28;20018;-48
2023/04/03 06:14:49;;;;;;;5.80;3.70;;;6.90;58.40;;;1.40;78.87;95971.50;4961727;28;20033;-56
2023/04/03 06:17:18;;;;;;;5.43;3.97;;;6.90;58.20;;;1.43;78.07;95959.78;4959291;28;20744;-53
2023/04/03 06:19:45;;;;;;;5.45;3.38;;;6.90;58.10;;;1.49;78.08;95966.88;4964031;28;20038;-54
2023/04/03 06:22:11;;;;;;;6.20;3.90;;;7.00;58.60;;;1.53;78.47;95957.59;4955300;28;20030;-54
2023/04/03 06:24:38;;;;;;;4.38;3.20;;;7.00;57.90;;;1.55;77.04;95964.28;4960709;28;20022;-51
2023/04/03 06:27:05;;;;;;;4.88;3.33;;;7.10;57.80;;;1.44;76.70;95964.84;4958527;28;20038;-52
2023/04/03 06:29:31;;;;;;;4.60;3.67;;;7.10;57.60;;;1.53;76.78;95963.66;4961335;28;20034;-52
2023/04/03 06:31:57;;;;;;;4.45;3.42;;;7.10;57.50;;;1.59;77.13;95967.31;4960540;28;20088;-52
2023/04/03 06:34:23;;;;;;;3.92;3.22;;;7.20;57.40;;;1.66;78.28;95968.16;4957963;28;20088;-55
2023/04/03 06:36:50;;;;;;;6.57;3.70;;;7.20;57.30;;;1.78;77.98;95966.53;4962945;28;20042;-54
2023/04/03 06:39:22;;;;;;;6.35;3.78;;;7.30;57.30;;;1.74;75.42;95965.31;4959842;28;20033;-56
2023/04/03 06:41:49;;;;;;;3.45;3.03;;;7.40;57.10;;;1.73;76.98;95955.03;4961511;28;20026;-51
2023/04/03 06:44:16;;;;;;;4.03;3.13;;;7.50;56.90;;;1.84;76.30;95965.72;4959083;28;20676;-54
2023/04/03 06:46:44;;;;;;;4.07;3.50;;;7.50;56.70;;;1.95;75.39;95966.16;4959170;28;20157;-52
2023/04/03 06:49:11;;;;;;;3.88;3.03;;;7.60;56.60;;;1.94;74.65;95975.03;4962426;28;20022;-53
2023/04/03 06:51:37;;;;;;;4.65;3.10;;;7.70;57.10;;;1.90;75.22;95961.50;4960130;28;20034;-55
2023/04/03 06:54:06;;;;;;;3.47;3.05;;;7.80;56.30;;;2.00;75.88;95964.53;4960146;28;20033;-50
2023/04/03 06:56:32;;;;;;;3.58;3.00;;;7.90;56.20;;;2.01;75.54;95960.09;4959481;28;20077;-53
2023/04/03 06:58:58;;;;;;;3.97;2.83;;;7.90;56.00;;;2.13;74.88;95974.28;4959538;28;20430;-51
2023/04/03 07:01:28;;;;;;;5.15;3.00;;;8.00;55.90;;;2.28;74.98;95972.22;4958052;28;20113;-55
2023/04/03 07:03:55;;;;;;;4.32;2.92;;;8.10;55.80;;;2.28;73.57;95974.03;4960260;28;20093;-53
2023/04/03 07:06:23;;;;;;;3.67;3.13;;;8.20;55.70;;;2.22;73.01;95970.41;4962226;28;20042;-51
2023/04/03 07:08:49;;;;;;;3.78;3.03;;;8.30;55.40;;;2.23;72.86;95968.59;4954634;28;20030;-56
2023/04/03 07:11:16;;;;;;;3.95;2.90;;;8.30;55.10;;;2.18;70.94;95971.81;4960788;28;20030;-56
2023/04/03 07:13:42;;;;;;;3.30;2.83;;;8.40;54.90;;;2.23;72.00;95958.91;4960913;28;20021;-55
2023/04/03 07:16:09;;;;;;;3.13;2.50;;;8.40;54.70;;;2.20;70.58;95979.53;4957352;28;20105;-54
2023/04/03 07:18:36;;;;;;;4.22;3.10;;;8.50;54.40;;;2.21;71.53;95983.75;4956983;28;20053;-51
2023/04/03 07:21:03;;;;;;;4.07;2.88;;;8.60;54.20;;;2.23;72.17;95977.28;4961137;28;20026;-50
2023/04/03 07:23:29;;;;;;;4.00;2.60;;;8.60;54.10;;;2.46;73.08;95986.59;4955855;28;20030;-50
2023/04/03 07:25:55;;;;;;;4.45;2.80;;;8.70;54.10;;;2.61;71.01;95986.38;4960196;28;20022;-56
2023/04/03 07:28:23;;;;;;;3.45;2.80;;;8.80;54.00;;;2.69;71.05;95988.78;4963786;28;20113;-54
2023/04/03 07:30:54;;;;;;;2.80;2.50;;;8.90;53.80;;;2.80;70.62;95982.09;4958467;28;20475;-55
2023/04/03 07:33:23;;;;;;;3.30;2.63;;;9.00;53.60;;;2.54;71.04;95999.53;4961897;28;22743;-52
2023/04/03 07:35:50;;;;;;;5.80;2.88;;;9.10;53.40;;;2.52;70.06;95986.56;4961147;28;20117;-54
2023/04/03 07:38:16;;;;;;;3.80;2.70;;;9.20;53.20;;;2.76;70.59;95993.03;4959557;28;20046;-53
2023/04/03 07:40:52;;;;;;;3.13;2.58;;;9.20;53.10;;;2.94;70.41;95992.38;4959008;28;20420;-56
2023/04/03 07:43:21;;;;;;;3.30;2.78;;;9.30;53.00;;;2.97;69.25;95999.84;4960052;28;20026;-52
2023/04/03 07:45:52;;;;;;;3.42;2.65;;;9.40;52.80;;;3.05;70.96;95995.41;4963129;28;20105;-55
2023/04/03 07:48:25;;;;;;;2.75;2.25;;;9.50;52.70;;;3.21;70.81;95992.28;4963640;28;20109;-53
2023/04/03 07:50:52;;;;;;;4.25;2.67;;;9.60;52.60;;;3.32;70.19;95996.94;4964914;28;20124;-51
2023/04/03 07:53:19;;;;;;;3.85;2.90;;;9.70;52.60;;;3.34;70.43;95997.50;4961090;28;20045;-53
2023/04/03 07:55:51;;;;;;;4.03;2.47;;;9.90;52.50;;;3.19;68.69;95999.59;4963420;28;20026;-53
2023/04/03 07:58:18;;;;;;;2.70;2.33;;;10.00;52.20;;;3.23;69.22;95992.91;4962027;28;20034;-54
2023/04/03 08:00:45;;;;;;;4.57;2.95;;;10.00;52.00;;;2.99;68.68;95989.94;4965588;28;20023;-54
2023/04/03 08:03:13;;;;;;;3.30;2.47;;;10.10;51.90;;;3.16;68.03;95994.72;4961855;28;20026;-52
2023/04/03 08:05:44;;;;;;;3.00;2.35;;;10.20;51.60;;;3.33;68.62;95997.72;4960398;28;20027;-51
2023/04/03 08:08:18;;;;;;;4.25;2.78;;;10.20;51.30;;;3.51;69.86;96004.94;4959219;28;20038;-56
2023/04/03 08:10:53;;;;;;;3.47;2.65;;;10.40;51.30;;;3.62;68.45;95993.75;4961869;28;20014;-53
2023/04/03 08:13:21;;;;;;;3.55;2.72;;;10.40;51.10;;;3.53;67.01;95997.63;4963568;28;20362;-56
2023/04/03 08:15:47;;;;;;;5.28;2.58;;;10.50;51.00;;;3.60;68.49;96004.47;4962037;28;20096;-54
2023/04/03 08:18:15;;;;;;;3.38;2.50;;;10.60;50.80;;;3.72;66.95;96002.78;4959445;28;20501;-56
2023/04/03 08:20:42;;;;;;;3.58;2.58;;;10.80;50.70;;;3.70;68.41;96001.41;4963114;28;20030;-50
2023/04/03 08:23:09;;;;;;;3.30;2.60;;;10.80;50.40;;;3.59;67.00;95994.16;4959227;28;20109;-54
2023/04/03 08:25:40;;;;;;;3.30;2.60;;;10.90;50.40;;;3.88;67.74;96014.66;4961661;28;20018;-55
2023/04/03 08:28:09;;;;;;;2.90;2.60;;;11.00;50.10;;;3.90;68.68;95998.66;4960326;28;20489;-49
2023/04/03 08:30:35;;;;;;;3.10;2.72;;;11.10;50.00;;;4.11;66.45;96000.97;4946329;28;20022;-52
2023/04/03 08:33:03;;;;;;;3.17;2.72;;;11.10;49.90;;;4.17;66.77;96008.00;4961917;28;20026;-55
2023/04/03 08:35:29;;;;;;;3.38;2.55;;;11.20;49.70;;;4.01;65.03;96015.63;4962077;28;20546;-55
2023/04/03 08:37:56;;;;;;;3.92;2.45;;;11.30;49.50;;;3.99;66.32;96004.50;4962612;28;20958;-55
2023/04/03 08:40:22;;;;;;;3.55;2.53;;;11.40;49.30;;;4.18;66.17;96009.63;4960933;28;20022;-55
2023/04/03 08:43:17;;;;;;;3.08;2.70;;;11.40;49.00;;;4.10;64.43;96007.22;4963131;28;20277;-53
2023/04/03 08:45:53;;;;;;;3.38;2.75;;;11.60;48.70;;;3.89;66.93;96007.59;4952986;28;20018;-54
2023/04/03 08:48:39;;;;;;;6.05;2.65;;;11.70;48.70;;;3.99;66.10;96009.75;4960486;28;20038;-54
2023/04/03 08:51:17;;;;;;;3.05;2.40;;;11.70;48.40;;;3.87;66.47;96017.53;4961046;28;20031;-51
2023/04/03 08:54:04;;;;;;;3.63;2.67;;;11.80;48.20;;;4.14;66.73;96023.47;4963212;28;20481;-54
2023/04/03 08:56:35;;;;;;;2.67;2.30;;;11.80;48.10;;;4.24;66.61;96025.63;4975385;28;21065;-52
2023/04/03 08:59:13;;;;;;;3.28;2.58;;;11.90;48.20;;;3.87;66.03;96026.25;4960509;28;20483;-55
2023/04/03 09:01:42;;;;;;;2.97;2.67;;;11.90;47.90;;;4.16;67.76;96019.56;4959816;28;20037;-55
2023/04/03 09:04:17;;;;;;;3.10;2.78;;;11.90;48.00;;;4.29;67.87;96020.50;4961232;28;20038;-54
2023/04/03 09:07:22;;;;;;;2.92;2.60;;;11.90;48.00;;;4.48;67.12;96024.00;4960547;28;20026;-52
2023/04/03 09:09:50;;;;;;;4.05;2.70;;;12.00;48.00;;;4.20;64.73;96027.06;4959477;28;20528;-53
2023/04/03 09:12:42;;;;;;;3.78;2.47;;;12.00;48.00;;;4.04;67.92;96023.94;4962013;28;20112;-56
2023/04/03 09:15:23;;;;;;;5.50;2.40;;;11.90;47.70;;;4.38;66.10;96027.13;4962471;28;20405;-52
2023/04/03 09:18:40;;;;;;;4.03;2.38;;;11.80;47.80;;;4.48;65.37;96021.38;4963828;28;20469;-54
2023/04/03 09:21:35;;;;;;;3.90;2.72;;;11.70;47.90;;;4.43;65.24;96031.78;4962924;28;20026;-56
2023/04/03 09:24:07;;;;;;;2.90;2.38;;;11.70;48.00;;;4.32;67.71;96033.25;4959955;28;20457;-51
2023/04/03 09:26:59;;;;;;;2.95;2.60;;;11.70;48.20;;;4.36;66.41;96035.28;4959822;28;20038;-50
2023/04/03 09:29:27;;;;;;;3.28;2.83;;;11.70;48.00;;;4.24;66.83;96029.06;4960308;28;20048;-52
2023/04/03 09:32:01;;;;;;;3.03;2.47;;;11.70;47.90;;;4.28;66.90;96026.81;4957919;28;20065;-51
2023/04/03 09:34:36;;;;;;;4.53;2.67;;;11.70;47.80;;;4.14;68.16;96028.72;4960057;28;20093;-52
2023/04/03 09:37:08;;;;;;;3.83;2.75;;;11.70;47.70;;;4.37;66.95;96030.78;4959468;28;20168;-54
2023/04/03 09:39:54;;;;;;;5.13;2.75;;;11.70;47.80;;;4.63;66.50;96032.41;4957858;28;20076;-51
2023/04/03 09:42:25;;;;;;;3.63;2.70;;;11.60;47.90;;;4.14;66.22;96031.38;4962044;28;20033;-54
2023/04/03 09:45:31;;;;;;;3.03;2.50;;;11.50;47.80;;;3.91;68.62;96034.53;4961984;28;20030;-53
2023/04/03 09:48:12;;;;;;;5.38;3.15;;;11.30;47.60;;;4.06;68.39;96032.41;4955506;28;20393;-55
2023/04/03 09:50:56;;;;;;;3.50;2.45;;;11.20;47.80;;;4.18;67.74;96029.91;4959837;28;20022;-50
2023/04/03 09:53:44;;;;;;;3.78;2.92;;;11.00;48.00;;;4.29;68.00;96033.69;4958216;28;20430;-56
2023/04/03 09:56:16;;;;;;;4.07;2.78;;;11.00;48.20;;;4.32;67.48;96035.91;4955156;28;20034;-54
2023/04/03 09:58:51;;;;;;;3.58;2.47;;;11.00;48.30;;;4.32;68.25;96030.63;4958306;28;20031;-55
2023/04/03 10:01:32;;;;;;;3.33;2.83;;;11.10;48.40;;;3.96;67.50;96031.28;4959841;28;20022;-55
2023/04/03 10:04:19;;;;;;;2.85;2.53;;;11.00;48.30;;;4.09;68.94;96028.56;4960107;28;20044;-56
2023/04/03 10:06:53;;;;;;;3.05;2.55;;;11.00;48.20;;;4.02;68.11;96027.78;4959759;28;20037;-56
2023/04/03 10:09:32;;;;;;;2.83;2.50;;;11.10;48.20;;;4.02;66.63;96031.22;4960411;28;20448;-54
2023/04/03 10:12:12;;;;;;;3.17;2.40;;;11.20;48.20;;;4.31;68.26;96027.19;4975540;28;20018;-56
2023/04/03 10:14:57;;;;;;;2.92;2.42;;;11.20;48.30;;;4.53;67.32;96038.19;4960142;28;20037;-55
2023/04/03 10:17:43;;;;;;;2.95;2.50;;;11.40;48.30;;;4.78;67.69;96032.09;4959277;28;20836;-54
2023/04/03 10:20:43;;;;;;;3.03;2.60;;;11.50;48.30;;;4.58;66.27;96029.63;4962530;28;20042;-52
2023/04/03 10:24:01;;;;;;;2.72;2.50;;;11.70;48.00;;;4.57;65.31;96020.88;4954212;28;20023;-54
2023/04/03 10:26:50;;;;;;;3.03;2.20;;;11.80;47.90;;;4.67;67.94;96025.69;4944977;28;20100;-53
2023/04/03 10:30:03;;;;;;;2.58;2.20;;;11.70;47.90;;;4.69;66.28;96023.63;4973583;28;20109;-56
2023/04/03 10:33:22;;;;;;;3.80;2.80;;;11.60;47.80;;;4.38;66.17;96035.03;4946962;28;20125;-56
2023/04/03 10:36:33;;;;;;;4.13;2.88;;;11.40;47.70;;;4.03;67.73;96019.66;4959029;28;20022;-56
2023/04/03 10:39:34;;;;;;;3.70;2.75;;;11.20;47.70;;;4.44;68.12;96015.72;4961980;28;20042;-56
2023/04/03 10:42:25;;;;;;;3.83;2.78;;;11.20;48.10;;;4.56;67.37;96013.19;4958550;28;20056;-52